Acadie — FV7722 — position and weather

sailwx.info

Track history (hours):
 
Tides and Currents Weather Stations Pressure Air Temp Water Temp Dewpoint Dewpoint Depression Visibility Wind Speed Wind Dir Waves Ship Positions

Acadie

Last reported at 2014-Aug-01 09:15 UTC. Time now 2014-Aug-01 09:58 UTC.
Position N 47°21' W 003°09'.

Length 45 m.

Type: Passenger vessel. MMSI: 227002780.

Date/timePositionNaut miles runAvg speedWind from/ knotsBaromVisibWave heightAir tempDewpointWater temp
2014-Aug-01 09:15N 47°21' W 003°09'5 6.6
2014-Aug-01 08:31N 47°26' W 003°08'3 3.1
2014-Aug-01 07:33N 47°29' W 003°07'8 6.7
2014-Aug-01 06:24N 47°21' W 003°09'0 0.1
2014-Aug-01 05:33N 47°21' W 003°09'6 5.7
2014-Aug-01 04:33N 47°26' W 003°08'2 2.3
2014-Aug-01 03:33N 47°29' W 003°07'4 3.5
2014-Aug-01 02:33N 47°26' W 003°03'3 0.2
2014-Jul-31 11:33N 47°29' W 003°04'2 1.9
2014-Jul-31 10:33N 47°28' W 003°07'7 5.4
2014-Jul-31 09:11N 47°21' W 003°09'5 7.2
2014-Jul-31 08:28N 47°26' W 003°08'3 2.7
2014-Jul-31 07:29N 47°29' W 003°07'8 6.0
2014-Jul-31 06:10N 47°21' W 003°09'0 0.1
2014-Jul-31 05:25N 47°21' W 003°09'5 5.6
2014-Jul-31 04:33N 47°26' W 003°08'3 2.3
2014-Jul-31 03:15N 47°29' W 003°07'4 5.4
2014-Jul-31 02:33N 47°27' W 003°03'3 0.6
2014-Jul-30 20:34N 47°29' W 003°06'7 7.2
2014-Jul-30 19:33N 47°22' W 003°07'5 4.7
2014-Jul-30 18:34N 47°27' W 003°08'2 1.7
2014-Jul-30 17:33N 47°29' W 003°07'8 7.7
2014-Jul-30 16:32N 47°21' W 003°09'5 5.3
2014-Jul-30 15:34N 47°26' W 003°08'3 2.7
2014-Jul-30 14:33N 47°29' W 003°07'8 5.8
2014-Jul-30 13:12N 47°21' W 003°09'5 7.6
2014-Jul-30 12:34N 47°26' W 003°08'3 2.9
2014-Jul-30 11:33N 47°29' W 003°07'8 7.8
2014-Jul-30 10:33N 47°21' W 003°09'8 7.7
2014-Jul-30 09:33N 47°29' W 003°07'1 1.3
2014-Jul-30 08:34N 47°28' W 003°09'1 1.2
2014-Jul-30 07:33N 47°28' W 003°07'5 4.5
2014-Jul-30 06:33N 47°24' W 003°07'4 3.5
2014-Jul-30 05:33N 47°21' W 003°09'3 3.1
2014-Jul-30 04:26N 47°24' W 003°08'4 5.1
2014-Jul-30 03:33N 47°29' W 003°07'3 3.4
2014-Jul-30 02:34N 47°26' W 003°04'3 0.2
2014-Jul-29 08:33N 47°29' W 003°06'1 1.1
2014-Jul-29 07:31N 47°29' W 003°07'4 4.5
2014-Jul-29 06:33N 47°24' W 003°07'4 3.4
2014-Jul-29 05:28N 47°21' W 003°09'3 3.3
2014-Jul-29 04:33N 47°24' W 003°08'5 5.0
2014-Jul-29 03:33N 47°29' W 003°07'3 3.5
2014-Jul-29 02:33N 47°26' W 003°04'3 0.2
2014-Jul-28 08:33N 47°29' W 003°06'1 1.4
2014-Jul-28 07:33N 47°29' W 003°07'8 6.1
2014-Jul-28 06:16N 47°21' W 003°09'2 1.4
2014-Jul-28 04:29N 47°23' W 003°08'6 5.9
2014-Jul-28 03:33N 47°29' W 003°07'3 3.4
2014-Jul-28 02:34N 47°26' W 003°05'3 0.2
2014-Jul-27 13:34N 47°28' W 003°03'9 7.3
2014-Jul-27 12:24N 47°21' W 003°09'6 7.1
2014-Jul-27 11:33N 47°27' W 003°08'1 1.5
2014-Jul-27 10:33N 47°28' W 003°07'7 5.3
2014-Jul-27 09:10N 47°21' W 003°09'4 6.3
2014-Jul-27 08:33N 47°24' W 003°07'4 4.1
2014-Jul-27 07:31N 47°29' W 003°07'3 2.8
2014-Jul-27 06:34N 47°28' W 003°03'0 0.0
2014-Jul-26 13:33N 47°28' W 003°03'8 7.6
2014-Jul-26 12:27N 47°21' W 003°09'6 7.1
2014-Jul-26 11:33N 47°27' W 003°07'1 0.9
2014-Jul-26 10:33N 47°28' W 003°07'7 5.1
2014-Jul-26 09:08N 47°21' W 003°09'5 6.9
2014-Jul-26 08:21N 47°26' W 003°08'2 3.1
2014-Jul-26 07:33N 47°29' W 003°07'8 3.8
2014-Jul-26 05:30N 47°21' W 003°09'3 3.0
2014-Jul-26 04:29N 47°24' W 003°08'5 5.3
2014-Jul-26 03:33N 47°29' W 003°07'3 3.4
2014-Jul-26 02:33N 47°26' W 003°04'2 0.1
2014-Jul-25 08:33N 47°28' W 003°04'2 2.4
2014-Jul-25 07:33N 47°29' W 003°07'8 6.1
2014-Jul-25 06:16N 47°21' W 003°09'0 0.1
2014-Jul-25 05:33N 47°21' W 003°09'2 2.0
2014-Jul-25 04:33N 47°23' W 003°08'6 6.0
2014-Jul-25 03:33N 47°29' W 003°07'3 3.4
2014-Jul-25 02:33N 47°26' W 003°05'2 0.1
2014-Jul-24 08:33N 47°27' W 003°02'4 3.8
2014-Jul-24 07:33N 47°29' W 003°07'7 6.8
2014-Jul-24 06:33N 47°22' W 003°08'1 0.9
2014-Jul-24 05:16N 47°21' W 003°09'2 2.5
2014-Jul-24 04:33N 47°22' W 003°08'6 6.1
2014-Jul-24 03:33N 47°29' W 003°07'3 3.4
2014-Jul-24 02:33N 47°26' W 003°05'3 0.2
2014-Jul-23 08:34N 47°29' W 003°04'2 1.9
2014-Jul-23 07:28N 47°29' W 003°07'6 7.0
2014-Jul-23 06:33N 47°22' W 003°09'1 1.3
2014-Jul-23 05:25N 47°21' W 003°09'4 4.2
2014-Jul-23 04:32N 47°24' W 003°08'4 4.3
2014-Jul-23 03:33N 47°29' W 003°07'3 3.4
2014-Jul-23 02:33N 47°26' W 003°04'  
Track history (hours):
 
Tides and Currents Weather Stations Pressure Air Temp Water Temp Dewpoint Dewpoint Depression Visibility Wind Speed Wind Dir Waves Ship Positions

Acadie

Last reported at 2014-Aug-01 09:15 UTC. Time now 2014-Aug-01 09:58 UTC.
Position N 47°21' W 003°09'.

Length 45 m.

Type: Passenger vessel. MMSI: 227002780.

Date/timePositionNaut miles runAvg speedWind from/ knotsBaromVisibWave heightAir tempDewpointWater temp
2014-Aug-01 09:15N 47°21' W 003°09'5 6.6
2014-Aug-01 08:31N 47°26' W 003°08'3 3.1
2014-Aug-01 07:33N 47°29' W 003°07'8 6.7
2014-Aug-01 06:24N 47°21' W 003°09'0 0.1
2014-Aug-01 05:33N 47°21' W 003°09'6 5.7
2014-Aug-01 04:33N 47°26' W 003°08'2 2.3
2014-Aug-01 03:33N 47°29' W 003°07'4 3.5
2014-Aug-01 02:33N 47°26' W 003°03'3 0.2
2014-Jul-31 11:33N 47°29' W 003°04'2 1.9
2014-Jul-31 10:33N 47°28' W 003°07'7 5.4
2014-Jul-31 09:11N 47°21' W 003°09'5 7.2
2014-Jul-31 08:28N 47°26' W 003°08'3 2.7
2014-Jul-31 07:29N 47°29' W 003°07'8 6.0
2014-Jul-31 06:10N 47°21' W 003°09'0 0.1
2014-Jul-31 05:25N 47°21' W 003°09'5 5.6
2014-Jul-31 04:33N 47°26' W 003°08'3 2.3
2014-Jul-31 03:15N 47°29' W 003°07'4 5.4
2014-Jul-31 02:33N 47°27' W 003°03'3 0.6
2014-Jul-30 20:34N 47°29' W 003°06'7 7.2
2014-Jul-30 19:33N 47°22' W 003°07'5 4.7
2014-Jul-30 18:34N 47°27' W 003°08'2 1.7
2014-Jul-30 17:33N 47°29' W 003°07'8 7.7
2014-Jul-30 16:32N 47°21' W 003°09'5 5.3
2014-Jul-30 15:34N 47°26' W 003°08'3 2.7
2014-Jul-30 14:33N 47°29' W 003°07'8 5.8
2014-Jul-30 13:12N 47°21' W 003°09'5 7.6
2014-Jul-30 12:34N 47°26' W 003°08'3 2.9
2014-Jul-30 11:33N 47°29' W 003°07'8 7.8
2014-Jul-30 10:33N 47°21' W 003°09'8 7.7
2014-Jul-30 09:33N 47°29' W 003°07'1 1.3
2014-Jul-30 08:34N 47°28' W 003°09'1 1.2
2014-Jul-30 07:33N 47°28' W 003°07'5 4.5
2014-Jul-30 06:33N 47°24' W 003°07'4 3.5
2014-Jul-30 05:33N 47°21' W 003°09'3 3.1
2014-Jul-30 04:26N 47°24' W 003°08'4 5.1
2014-Jul-30 03:33N 47°29' W 003°07'3 3.4
2014-Jul-30 02:34N 47°26' W 003°04'3 0.2
2014-Jul-29 08:33N 47°29' W 003°06'1 1.1
2014-Jul-29 07:31N 47°29' W 003°07'4 4.5
2014-Jul-29 06:33N 47°24' W 003°07'4 3.4
2014-Jul-29 05:28N 47°21' W 003°09'3 3.3
2014-Jul-29 04:33N 47°24' W 003°08'5 5.0
2014-Jul-29 03:33N 47°29' W 003°07'3 3.5
2014-Jul-29 02:33N 47°26' W 003°04'3 0.2
2014-Jul-28 08:33N 47°29' W 003°06'1 1.4
2014-Jul-28 07:33N 47°29' W 003°07'8 6.1
2014-Jul-28 06:16N 47°21' W 003°09'2 1.4
2014-Jul-28 04:29N 47°23' W 003°08'6 5.9
2014-Jul-28 03:33N 47°29' W 003°07'3 3.4
2014-Jul-28 02:34N 47°26' W 003°05'3 0.2
2014-Jul-27 13:34N 47°28' W 003°03'9 7.3
2014-Jul-27 12:24N 47°21' W 003°09'6 7.1
2014-Jul-27 11:33N 47°27' W 003°08'1 1.5
2014-Jul-27 10:33N 47°28' W 003°07'7 5.3
2014-Jul-27 09:10N 47°21' W 003°09'4 6.3
2014-Jul-27 08:33N 47°24' W 003°07'4 4.1
2014-Jul-27 07:31N 47°29' W 003°07'3 2.8
2014-Jul-27 06:34N 47°28' W 003°03'0 0.0
2014-Jul-26 13:33N 47°28' W 003°03'8 7.6
2014-Jul-26 12:27N 47°21' W 003°09'6 7.1
2014-Jul-26 11:33N 47°27' W 003°07'1 0.9
2014-Jul-26 10:33N 47°28' W 003°07'7 5.1
2014-Jul-26 09:08N 47°21' W 003°09'5 6.9
2014-Jul-26 08:21N 47°26' W 003°08'2 3.1
2014-Jul-26 07:33N 47°29' W 003°07'8 3.8
2014-Jul-26 05:30N 47°21' W 003°09'3 3.0
2014-Jul-26 04:29N 47°24' W 003°08'5 5.3
2014-Jul-26 03:33N 47°29' W 003°07'3 3.4
2014-Jul-26 02:33N 47°26' W 003°04'2 0.1
2014-Jul-25 08:33N 47°28' W 003°04'2 2.4
2014-Jul-25 07:33N 47°29' W 003°07'8 6.1
2014-Jul-25 06:16N 47°21' W 003°09'0 0.1
2014-Jul-25 05:33N 47°21' W 003°09'2 2.0
2014-Jul-25 04:33N 47°23' W 003°08'6 6.0
2014-Jul-25 03:33N 47°29' W 003°07'3 3.4
2014-Jul-25 02:33N 47°26' W 003°05'2 0.1
2014-Jul-24 08:33N 47°27' W 003°02'4 3.8
2014-Jul-24 07:33N 47°29' W 003°07'7 6.8
2014-Jul-24 06:33N 47°22' W 003°08'1 0.9
2014-Jul-24 05:16N 47°21' W 003°09'2 2.5
2014-Jul-24 04:33N 47°22' W 003°08'6 6.1
2014-Jul-24 03:33N 47°29' W 003°07'3 3.4
2014-Jul-24 02:33N 47°26' W 003°05'3 0.2
2014-Jul-23 08:34N 47°29' W 003°04'2 1.9
2014-Jul-23 07:28N 47°29' W 003°07'6 7.0
2014-Jul-23 06:33N 47°22' W 003°09'1 1.3
2014-Jul-23 05:25N 47°21' W 003°09'4 4.2
2014-Jul-23 04:32N 47°24' W 003°08'4 4.3
2014-Jul-23 03:33N 47°29' W 003°07'3 3.4
2014-Jul-23 02:33N 47°26' W 003°04'  

Dump ship's entire track history